createdAt,value
2017-09-23T00:00:10.815Z,15.20
2017-09-23T00:02:45.401Z,15.21
2017-09-23T00:05:20.141Z,15.22
2017-09-23T00:07:54.827Z,15.17
2017-09-23T00:10:30.498Z,15.15
2017-09-23T00:13:05.247Z,15.14
2017-09-23T00:15:40.041Z,15.12
2017-09-23T00:18:15.779Z,15.13
2017-09-23T00:20:50.434Z,15.15
2017-09-23T00:23:25.087Z,15.14
2017-09-23T00:25:59.756Z,15.13
2017-09-23T00:28:34.623Z,15.13
2017-09-23T00:31:09.274Z,15.09
2017-09-23T00:33:43.957Z,15.01
2017-09-23T00:36:18.827Z,15.02
2017-09-23T00:38:53.706Z,15.06
2017-09-23T00:41:28.334Z,15.07
2017-09-23T00:44:02.821Z,15.07
2017-09-23T00:46:38.115Z,15.12
2017-09-23T00:49:12.746Z,15.14
2017-09-23T00:51:47.199Z,15.10
2017-09-23T00:54:21.911Z,15.08
2017-09-23T00:56:56.959Z,15.02
2017-09-23T00:59:31.689Z,14.98
2017-09-23T01:02:07.136Z,14.95
2017-09-23T01:04:41.547Z,14.95
2017-09-23T01:07:16.370Z,14.93
2017-09-23T01:09:51.727Z,14.93
2017-09-23T01:12:26.311Z,14.90
2017-09-23T01:15:01.240Z,14.86
2017-09-23T01:17:35.955Z,14.84
2017-09-23T01:20:10.681Z,14.76
2017-09-23T01:22:44.967Z,14.62
2017-09-23T01:25:19.340Z,14.67
2017-09-23T01:27:54.278Z,14.63
2017-09-23T01:30:29.086Z,14.57
2017-09-23T01:33:03.853Z,14.57
2017-09-23T01:35:38.868Z,14.55
2017-09-23T01:38:13.294Z,14.51
2017-09-23T01:40:48.139Z,14.47
2017-09-23T01:43:22.764Z,14.43
2017-09-23T01:45:57.398Z,14.39
2017-09-23T01:48:32.024Z,14.25
2017-09-23T01:51:07.035Z,14.10
2017-09-23T01:53:41.876Z,14.08
2017-09-23T01:56:17.111Z,14.05
2017-09-23T01:58:52.058Z,14.01
2017-09-23T02:01:26.607Z,14.05
2017-09-23T02:04:01.399Z,14.05
2017-09-23T02:06:36.001Z,14.04
2017-09-23T02:09:10.676Z,14.00
2017-09-23T02:11:45.463Z,13.97
2017-09-23T02:14:20.182Z,13.96
2017-09-23T02:16:55.187Z,13.86
2017-09-23T02:19:29.932Z,13.76
2017-09-23T02:22:04.758Z,13.75
2017-09-23T02:24:39.463Z,13.73
2017-09-23T02:27:14.087Z,13.75
2017-09-23T02:29:48.852Z,13.71
2017-09-23T02:32:23.485Z,13.70
2017-09-23T02:34:58.142Z,13.63
2017-09-23T02:37:32.803Z,13.63
2017-09-23T02:40:07.491Z,13.61
2017-09-23T02:42:42.178Z,13.57
2017-09-23T02:45:16.682Z,13.53
2017-09-23T02:47:52.409Z,13.49
2017-09-23T02:50:27.968Z,13.42
2017-09-23T02:53:02.695Z,13.28
2017-09-23T02:55:37.465Z,13.18
2017-09-23T02:58:12.546Z,13.28
2017-09-23T03:00:47.567Z,13.20
2017-09-23T03:03:22.386Z,13.17
2017-09-23T03:05:57.236Z,13.23
2017-09-23T03:08:32.047Z,13.24
2017-09-23T03:11:06.880Z,13.26
2017-09-23T03:13:42.472Z,13.30
2017-09-23T03:16:17.334Z,13.30
2017-09-23T03:18:52.273Z,13.27
2017-09-23T03:21:27.077Z,13.25
2017-09-23T03:24:01.787Z,13.29
2017-09-23T03:26:36.437Z,13.30
2017-09-23T03:29:11.042Z,13.28
2017-09-23T03:31:45.778Z,13.28
2017-09-23T03:34:20.703Z,13.29
2017-09-23T03:36:55.455Z,13.29
2017-09-23T03:39:30.246Z,13.32
2017-09-23T03:42:04.759Z,13.36
2017-09-23T03:44:39.640Z,13.36
2017-09-23T03:47:14.352Z,13.38
2017-09-23T03:49:48.899Z,13.40
2017-09-23T03:52:23.835Z,13.42
2017-09-23T03:54:58.452Z,13.41
2017-09-23T03:57:33.150Z,13.42
2017-09-23T04:00:08.639Z,13.41
2017-09-23T04:02:43.252Z,13.40
2017-09-23T04:05:18.771Z,13.40
2017-09-23T04:07:53.392Z,13.42
2017-09-23T04:10:29.107Z,13.40
2017-09-23T04:13:03.779Z,13.35
2017-09-23T04:15:38.395Z,13.30
2017-09-23T04:18:14.245Z,13.22
2017-09-23T04:20:49.111Z,13.11
2017-09-23T04:23:23.913Z,13.04
2017-09-23T04:25:58.646Z,12.99
2017-09-23T04:28:34.224Z,12.93
2017-09-23T04:31:08.811Z,12.85
2017-09-23T04:33:44.401Z,12.76
2017-09-23T04:36:19.162Z,12.67
2017-09-23T04:38:53.688Z,12.68
2017-09-23T04:41:29.278Z,12.70
2017-09-23T04:44:03.899Z,12.79
2017-09-23T04:46:38.570Z,12.78
2017-09-23T04:49:13.078Z,12.84
2017-09-23T04:51:47.779Z,12.88
2017-09-23T04:54:22.735Z,12.87
2017-09-23T04:56:57.683Z,12.89
2017-09-23T04:59:32.677Z,12.94
2017-09-23T05:02:07.382Z,12.98
2017-09-23T05:04:42.104Z,13.01
2017-09-23T05:07:16.827Z,13.06
2017-09-23T05:09:51.458Z,13.11
2017-09-23T05:12:26.283Z,13.16
2017-09-23T05:15:00.860Z,13.18
2017-09-23T05:17:35.577Z,13.19
2017-09-23T05:20:10.401Z,13.18
2017-09-23T05:22:45.254Z,13.25
2017-09-23T05:25:19.925Z,13.31
2017-09-23T05:27:54.464Z,13.37
2017-09-23T05:30:29.163Z,13.37
2017-09-23T05:33:03.836Z,13.43
2017-09-23T05:35:38.033Z,13.53
2017-09-23T05:38:12.951Z,13.54
2017-09-23T05:40:47.851Z,13.59
2017-09-23T05:43:22.563Z,13.64
2017-09-23T05:45:57.384Z,13.66
2017-09-23T05:48:33.012Z,13.66
2017-09-23T05:51:07.659Z,13.69
2017-09-23T05:53:42.496Z,13.70
2017-09-23T05:56:17.274Z,13.74
2017-09-23T05:58:52.172Z,13.78
2017-09-23T06:01:27.002Z,13.83
2017-09-23T06:04:01.926Z,13.93
2017-09-23T06:06:37.036Z,13.94
2017-09-23T06:09:11.648Z,13.93
2017-09-23T06:11:46.391Z,13.91
2017-09-23T06:14:21.163Z,13.85
2017-09-23T06:16:56.814Z,13.97
2017-09-23T06:19:31.559Z,14.07
2017-09-23T06:22:06.088Z,14.14
2017-09-23T06:24:41.703Z,14.08
2017-09-23T06:27:16.571Z,14.09
2017-09-23T06:29:51.070Z,14.15
2017-09-23T06:32:25.876Z,14.19
2017-09-23T06:35:00.699Z,14.30
2017-09-23T06:37:35.502Z,14.41
2017-09-23T06:40:10.442Z,14.56
2017-09-23T06:42:45.235Z,14.59
2017-09-23T06:45:20.227Z,14.64
2017-09-23T06:47:55.298Z,14.87
2017-09-23T06:50:30.298Z,14.93
2017-09-23T06:53:04.910Z,14.88
2017-09-23T06:55:39.472Z,14.84
2017-09-23T06:58:14.152Z,14.71
2017-09-23T07:00:49.093Z,14.61
2017-09-23T07:03:23.574Z,14.62
2017-09-23T07:05:58.415Z,14.59
2017-09-23T07:08:33.044Z,14.69
2017-09-23T07:11:07.555Z,14.83
2017-09-23T07:13:42.403Z,14.99
2017-09-23T07:16:17.113Z,15.08
2017-09-23T07:18:52.706Z,14.97
2017-09-23T07:21:27.056Z,14.96
2017-09-23T07:24:02.179Z,15.19
2017-09-23T07:26:37.407Z,15.31
2017-09-23T07:29:11.975Z,15.20
2017-09-23T07:31:47.285Z,15.28
2017-09-23T07:34:22.299Z,15.34
2017-09-23T07:36:57.090Z,15.37
2017-09-23T07:39:31.710Z,15.30
2017-09-23T07:42:06.143Z,15.27
2017-09-23T07:44:40.742Z,15.31
2017-09-23T07:47:16.270Z,15.37
2017-09-23T07:49:51.199Z,15.44
2017-09-23T07:52:26.090Z,15.56
2017-09-23T07:55:01.177Z,15.56
2017-09-23T07:57:35.811Z,15.57
2017-09-23T08:00:10.267Z,15.65
2017-09-23T08:02:45.231Z,15.63
2017-09-23T08:05:19.992Z,15.54
2017-09-23T08:07:54.815Z,15.53
2017-09-23T08:10:29.551Z,15.44
2017-09-23T08:13:03.862Z,15.48
2017-09-23T08:15:39.111Z,15.62
2017-09-23T08:18:13.930Z,15.75
2017-09-23T08:20:48.440Z,15.83
2017-09-23T08:23:23.516Z,15.90
2017-09-23T08:25:58.215Z,15.94
2017-09-23T08:28:32.999Z,16.02
2017-09-23T08:31:07.606Z,16.13
2017-09-23T08:33:42.314Z,16.26
2017-09-23T08:36:18.163Z,16.29
2017-09-23T08:38:52.907Z,16.34
2017-09-23T08:41:27.489Z,16.35
2017-09-23T08:44:02.718Z,16.41
2017-09-23T08:46:37.424Z,16.39
2017-09-23T08:49:12.173Z,16.48
2017-09-23T08:51:46.883Z,16.63
2017-09-23T08:54:21.795Z,16.65
2017-09-23T08:56:56.911Z,16.60
2017-09-23T08:59:31.564Z,16.60
2017-09-23T09:02:06.330Z,16.61
2017-09-23T09:04:41.019Z,16.66
2017-09-23T09:07:15.807Z,16.87
2017-09-23T09:09:50.521Z,16.97
2017-09-23T09:12:26.263Z,16.96
2017-09-23T09:15:01.250Z,17.14
2017-09-23T09:17:36.071Z,16.96
2017-09-23T09:20:11.295Z,17.04
2017-09-23T09:22:45.930Z,17.04
2017-09-23T09:25:20.900Z,16.97
2017-09-23T09:27:55.990Z,17.01
2017-09-23T09:30:30.745Z,17.14
2017-09-23T09:33:05.138Z,17.18
2017-09-23T09:35:40.377Z,17.20
2017-09-23T09:38:15.026Z,17.25
2017-09-23T09:40:50.067Z,17.27
2017-09-23T09:43:24.789Z,17.37
2017-09-23T09:45:59.623Z,17.42
2017-09-23T09:48:34.316Z,17.36
2017-09-23T09:51:09.030Z,17.31
2017-09-23T09:53:43.725Z,17.24
2017-09-23T09:56:18.562Z,17.30
2017-09-23T09:58:53.552Z,17.34
2017-09-23T10:01:28.661Z,17.39
2017-09-23T10:04:03.519Z,17.61
2017-09-23T10:06:38.337Z,17.65
2017-09-23T10:09:12.997Z,17.89
2017-09-23T10:11:47.769Z,17.89
2017-09-23T10:14:22.823Z,17.91
2017-09-23T10:16:57.639Z,17.90
2017-09-23T10:19:32.147Z,17.83
2017-09-23T10:22:07.115Z,17.76
2017-09-23T10:24:41.839Z,17.71
2017-09-23T10:27:16.346Z,17.71
2017-09-23T10:29:51.638Z,17.75
2017-09-23T10:32:26.355Z,17.72
2017-09-23T10:35:01.057Z,17.83
2017-09-23T10:37:35.928Z,18.08
2017-09-23T10:40:10.673Z,18.30
2017-09-23T10:42:45.309Z,18.51
2017-09-23T10:45:19.774Z,18.67
2017-09-23T10:47:54.547Z,18.74
2017-09-23T10:50:29.156Z,18.82
2017-09-23T10:53:03.591Z,18.74
2017-09-23T10:55:38.527Z,18.68
2017-09-23T10:58:13.471Z,18.62
2017-09-23T11:00:48.485Z,18.75
2017-09-23T11:03:23.424Z,18.80
2017-09-23T11:05:58.222Z,18.91
2017-09-23T11:08:32.855Z,18.95
2017-09-23T11:11:07.575Z,18.81
2017-09-23T11:13:42.295Z,18.81
2017-09-23T11:16:16.802Z,18.80
2017-09-23T11:18:52.595Z,18.79
2017-09-23T11:21:27.097Z,19.04
2017-09-23T11:24:01.903Z,19.72
2017-09-23T11:26:36.550Z,20.13
2017-09-23T11:29:11.160Z,20.34
2017-09-23T11:31:45.911Z,20.10
2017-09-23T11:34:20.824Z,20.11
2017-09-23T11:36:56.526Z,20.29
2017-09-23T11:39:30.999Z,20.24
2017-09-23T11:42:05.554Z,20.29
2017-09-23T11:44:40.079Z,20.32
2017-09-23T11:47:14.903Z,20.23
2017-09-23T11:49:49.632Z,20.21
2017-09-23T11:52:25.367Z,20.13
2017-09-23T11:55:00.047Z,20.19
2017-09-23T11:57:34.671Z,20.24
2017-09-23T12:00:09.403Z,20.49
2017-09-23T12:02:44.190Z,20.63
2017-09-23T12:05:18.801Z,20.70
2017-09-23T12:07:53.499Z,20.65
2017-09-23T12:10:28.194Z,20.59
2017-09-23T12:13:02.592Z,21.01
2017-09-23T12:15:37.495Z,21.41
2017-09-23T12:18:12.118Z,21.97
2017-09-23T12:20:46.719Z,22.30
2017-09-23T12:23:22.342Z,22.47
2017-09-23T12:25:56.989Z,22.44
2017-09-23T12:28:31.612Z,22.48
2017-09-23T12:31:06.376Z,22.44
2017-09-23T12:33:41.030Z,22.28
2017-09-23T12:36:16.607Z,21.99
2017-09-23T12:38:51.326Z,21.80
2017-09-23T12:41:26.082Z,21.73
2017-09-23T12:44:00.735Z,21.64
2017-09-23T12:46:35.549Z,21.55
2017-09-23T12:49:11.293Z,21.39
2017-09-23T12:51:46.751Z,21.20
2017-09-23T12:54:21.561Z,21.14
2017-09-23T12:56:56.182Z,21.18
2017-09-23T12:59:30.726Z,21.12
2017-09-23T13:02:05.606Z,21.10
2017-09-23T13:04:40.551Z,21.17
2017-09-23T13:07:15.418Z,21.23
2017-09-23T13:09:50.229Z,21.29
2017-09-23T13:12:24.855Z,21.36
2017-09-23T13:14:59.531Z,21.38
2017-09-23T13:17:34.225Z,21.33
2017-09-23T13:20:09.057Z,21.30
2017-09-23T13:22:43.899Z,21.29
2017-09-23T13:25:18.720Z,21.28
2017-09-23T13:27:53.475Z,21.37
2017-09-23T13:30:27.998Z,21.62
2017-09-23T13:33:03.613Z,21.80
2017-09-23T13:35:38.149Z,21.83
2017-09-23T13:38:12.892Z,21.89
2017-09-23T13:40:49.146Z,21.87
2017-09-23T13:43:24.440Z,21.90
2017-09-23T13:45:59.497Z,21.96
2017-09-23T13:48:34.279Z,21.96
2017-09-23T13:51:09.017Z,21.76
2017-09-23T13:53:43.615Z,21.73
2017-09-23T13:56:18.354Z,21.79
2017-09-23T13:58:52.884Z,21.72
2017-09-23T14:01:27.716Z,21.60
2017-09-23T14:04:03.404Z,21.51
2017-09-23T14:06:38.683Z,21.53
2017-09-23T14:09:13.709Z,21.66
2017-09-23T14:11:48.634Z,21.63
2017-09-23T14:14:22.952Z,21.57
2017-09-23T14:16:58.267Z,21.64
2017-09-23T14:19:33.075Z,21.70
2017-09-23T14:22:07.879Z,21.72
2017-09-23T14:24:42.797Z,21.75
2017-09-23T14:27:17.584Z,21.64
2017-09-23T14:29:52.314Z,21.62
2017-09-23T14:32:27.321Z,21.62
2017-09-23T14:35:01.920Z,21.51
2017-09-23T14:37:36.414Z,21.50
2017-09-23T14:40:11.082Z,21.37
2017-09-23T14:42:45.827Z,21.47
2017-09-23T14:45:20.635Z,21.57
2017-09-23T14:47:55.416Z,21.74
2017-09-23T14:50:30.167Z,21.86
2017-09-23T14:53:04.897Z,21.91
2017-09-23T14:55:39.500Z,21.80
2017-09-23T14:58:14.305Z,21.43
2017-09-23T15:00:49.930Z,21.41
2017-09-23T15:03:25.576Z,21.44
2017-09-23T15:06:00.440Z,21.43
2017-09-23T15:08:35.055Z,21.32
2017-09-23T15:11:09.747Z,21.27
2017-09-23T15:13:44.336Z,21.18
2017-09-23T15:16:18.926Z,21.16
2017-09-23T15:18:53.731Z,21.03
2017-09-23T15:21:28.473Z,20.94
2017-09-23T15:24:03.781Z,20.89
2017-09-23T15:26:38.295Z,20.97
2017-09-23T15:29:13.020Z,20.87
2017-09-23T15:31:47.718Z,20.77
2017-09-23T15:34:22.328Z,20.57
2017-09-23T15:36:57.167Z,20.37
2017-09-23T15:39:31.908Z,20.08
2017-09-23T15:42:06.812Z,19.91
2017-09-23T15:44:41.841Z,19.85
2017-09-23T15:47:16.274Z,19.82
2017-09-23T15:49:51.124Z,19.81
2017-09-23T15:52:25.959Z,19.72
2017-09-23T15:55:00.660Z,19.73
2017-09-23T15:57:35.233Z,19.67
2017-09-23T16:00:09.868Z,19.62
2017-09-23T16:02:44.489Z,19.63
2017-09-23T16:05:19.274Z,19.60
2017-09-23T16:07:54.104Z,19.59
2017-09-23T16:10:28.706Z,19.55
2017-09-23T16:13:03.810Z,19.57
2017-09-23T16:15:38.631Z,19.61
2017-09-23T16:18:13.287Z,19.67
2017-09-23T16:20:48.305Z,19.65
2017-09-23T16:23:23.018Z,19.67
2017-09-23T16:25:57.754Z,19.66
2017-09-23T16:28:32.455Z,19.42
2017-09-23T16:31:07.281Z,19.31
2017-09-23T16:33:41.945Z,19.21
2017-09-23T16:36:16.929Z,19.16
2017-09-23T16:38:51.755Z,19.10
2017-09-23T16:41:26.505Z,19.03
2017-09-23T16:44:01.217Z,18.97
2017-09-23T16:46:36.055Z,18.95
2017-09-23T16:49:10.611Z,18.93
2017-09-23T16:51:45.327Z,18.90
2017-09-23T16:54:20.009Z,18.89
2017-09-23T16:56:54.848Z,18.88
2017-09-23T16:59:29.695Z,18.88
2017-09-23T17:02:04.486Z,18.88
2017-09-23T17:04:40.294Z,18.89
2017-09-23T17:07:15.142Z,18.85
2017-09-23T17:09:50.744Z,18.81
2017-09-23T17:12:25.459Z,18.75
2017-09-23T17:15:00.639Z,18.66
2017-09-23T17:17:35.667Z,18.54
2017-09-23T17:20:10.276Z,18.47
2017-09-23T17:22:44.842Z,18.40
2017-09-23T17:25:19.398Z,18.41
2017-09-23T17:27:54.108Z,18.45
2017-09-23T17:30:28.915Z,18.47
2017-09-23T17:33:03.757Z,18.47
2017-09-23T17:35:38.352Z,18.46
2017-09-23T17:38:13.299Z,18.46
2017-09-23T17:40:48.123Z,18.38
2017-09-23T17:43:22.758Z,18.35
2017-09-23T17:45:57.588Z,18.32
2017-09-23T17:48:32.612Z,18.23
2017-09-23T17:51:07.571Z,18.17
2017-09-23T17:53:42.451Z,18.13
2017-09-23T17:56:18.037Z,18.05
2017-09-23T17:58:52.755Z,17.98
2017-09-23T18:01:27.475Z,17.94
2017-09-23T18:04:02.269Z,17.90
2017-09-23T18:06:36.892Z,17.86
2017-09-23T18:09:11.745Z,17.82
2017-09-23T18:11:46.397Z,17.78
2017-09-23T18:14:21.224Z,17.78
2017-09-23T18:16:56.164Z,17.73
2017-09-23T18:19:30.878Z,17.69
2017-09-23T18:22:05.655Z,17.66
2017-09-23T18:24:40.153Z,17.66
2017-09-23T18:27:14.751Z,17.60
2017-09-23T18:29:49.462Z,17.57
2017-09-23T18:32:24.232Z,17.56
2017-09-23T18:34:59.051Z,17.55
2017-09-23T18:37:33.903Z,17.52
2017-09-23T18:40:08.711Z,17.52
2017-09-23T18:42:43.543Z,17.52
2017-09-23T18:45:19.050Z,17.51
2017-09-23T18:47:54.092Z,17.49
2017-09-23T18:50:28.901Z,17.45
2017-09-23T18:53:03.795Z,17.36
2017-09-23T18:55:38.558Z,17.32
2017-09-23T18:58:13.372Z,17.28
2017-09-23T19:00:48.028Z,17.23
2017-09-23T19:03:22.712Z,17.20
2017-09-23T19:05:57.439Z,17.15
2017-09-23T19:08:32.086Z,17.07
2017-09-23T19:11:06.699Z,16.96
2017-09-23T19:13:41.334Z,16.91
2017-09-23T19:16:16.933Z,16.82
2017-09-23T19:18:51.666Z,16.76
2017-09-23T19:21:26.753Z,16.74
2017-09-23T19:24:02.487Z,16.72
2017-09-23T19:26:37.116Z,16.64
2017-09-23T19:29:11.820Z,16.63
2017-09-23T19:31:46.206Z,16.59
2017-09-23T19:34:20.975Z,16.53
2017-09-23T19:36:55.674Z,16.49
2017-09-23T19:39:30.607Z,16.47
2017-09-23T19:42:05.356Z,16.41
2017-09-23T19:44:39.908Z,16.37
2017-09-23T19:47:14.516Z,16.38
2017-09-23T19:49:58.381Z,16.36
2017-09-23T19:52:33.220Z,16.36
2017-09-23T19:55:08.352Z,16.31
2017-09-23T19:57:43.203Z,16.27
2017-09-23T20:00:19.665Z,16.24
2017-09-23T20:02:54.268Z,16.22
2017-09-23T20:05:28.987Z,16.22
2017-09-23T20:08:03.771Z,16.19
2017-09-23T20:10:38.710Z,16.16
2017-09-23T20:13:13.399Z,16.11
2017-09-23T20:15:48.141Z,16.07
2017-09-23T20:18:22.786Z,16.02
2017-09-23T20:20:57.228Z,15.98
2017-09-23T20:23:32.111Z,15.96
2017-09-23T20:26:06.839Z,15.94
2017-09-23T20:28:41.550Z,15.88
2017-09-23T20:31:17.214Z,15.80
2017-09-23T20:33:51.855Z,15.71
2017-09-23T20:36:26.491Z,15.67
2017-09-23T20:39:01.187Z,15.65
2017-09-23T20:41:35.814Z,15.63
2017-09-23T20:44:10.561Z,15.57
2017-09-23T20:46:45.514Z,15.52
2017-09-23T20:49:20.241Z,15.51
2017-09-23T20:51:55.041Z,15.53
2017-09-23T20:54:29.955Z,15.47
2017-09-23T20:57:04.886Z,15.42
2017-09-23T20:59:39.595Z,15.39
2017-09-23T21:02:14.515Z,15.37
2017-09-23T21:04:49.247Z,15.32
2017-09-23T21:07:24.123Z,15.33
2017-09-23T21:09:58.927Z,15.33
2017-09-23T21:12:33.430Z,15.33
2017-09-23T21:15:08.139Z,15.33
2017-09-23T21:17:42.862Z,15.32
2017-09-23T21:20:17.752Z,15.29
2017-09-23T21:22:52.478Z,15.26
2017-09-23T21:25:27.514Z,15.28
2017-09-23T21:28:03.086Z,15.28
2017-09-23T21:30:38.146Z,15.28
2017-09-23T21:33:12.975Z,15.30
2017-09-23T21:35:48.119Z,15.29
2017-09-23T21:38:23.543Z,15.27
2017-09-23T21:40:58.143Z,15.25
2017-09-23T21:43:32.933Z,15.24
2017-09-23T21:46:07.747Z,15.24
2017-09-23T21:48:43.370Z,15.22
2017-09-23T21:51:18.131Z,15.21
2017-09-23T21:53:52.955Z,15.22
2017-09-23T21:56:27.811Z,15.26
2017-09-23T21:59:02.633Z,15.27
2017-09-23T22:01:37.243Z,15.28
2017-09-23T22:04:11.976Z,15.27
2017-09-23T22:06:46.656Z,15.28
2017-09-23T22:09:21.476Z,15.26
2017-09-23T22:11:56.212Z,15.25
2017-09-23T22:14:30.716Z,15.23
2017-09-23T22:17:05.339Z,15.23
2017-09-23T22:19:40.059Z,15.21
2017-09-23T22:22:14.852Z,15.16
2017-09-23T22:24:49.876Z,15.14
2017-09-23T22:27:24.673Z,15.09
2017-09-23T22:29:59.503Z,15.02
2017-09-23T22:32:34.120Z,14.92
2017-09-23T22:35:09.012Z,14.80
2017-09-23T22:37:43.623Z,14.71
2017-09-23T22:40:19.244Z,14.63
2017-09-23T22:42:54.179Z,14.56
2017-09-23T22:45:28.919Z,14.48
2017-09-23T22:48:03.780Z,14.44
2017-09-23T22:50:38.403Z,14.45
2017-09-23T22:53:13.191Z,14.44
2017-09-23T22:55:47.853Z,14.43
2017-09-23T22:58:22.600Z,14.39
2017-09-23T23:00:57.170Z,14.37
2017-09-23T23:03:32.175Z,14.37
2017-09-23T23:06:06.830Z,14.39
2017-09-23T23:08:42.309Z,14.43
2017-09-23T23:11:17.911Z,14.44
2017-09-23T23:13:52.577Z,14.39
2017-09-23T23:16:27.196Z,14.37
2017-09-23T23:19:01.904Z,14.33
2017-09-23T23:21:36.346Z,14.29
2017-09-23T23:24:11.452Z,14.29
2017-09-23T23:26:46.381Z,14.24
2017-09-23T23:29:21.057Z,14.24
2017-09-23T23:31:55.836Z,14.27
2017-09-23T23:34:30.538Z,14.28
2017-09-23T23:37:05.626Z,14.30
2017-09-23T23:39:40.500Z,14.30
2017-09-23T23:42:15.216Z,14.36
2017-09-23T23:44:50.027Z,14.37
2017-09-23T23:47:24.880Z,14.39
2017-09-23T23:49:59.635Z,14.45
2017-09-23T23:52:34.143Z,14.49
2017-09-23T23:55:08.779Z,14.46
2017-09-23T23:57:43.451Z,14.48
